sensor_id;sensor_type;location;lat;lon;timestamp;pressure;altitude;pressure_sealevel;temperature;humidity
60089;BME280;45961;53.574;55.878;2023-11-19T00:01:09;100881.75;;;-6.21;74.01
60089;BME280;45961;53.574;55.878;2023-11-19T00:02:29;100888.44;;;-6.21;74.12
60089;BME280;45961;53.574;55.878;2023-11-19T00:03:48;100884.75;;;-6.25;74.21
60089;BME280;45961;53.574;55.878;2023-11-19T00:05:08;100895.44;;;-6.27;74.23
60089;BME280;45961;53.574;55.878;2023-11-19T00:06:28;100890.28;;;-6.29;74.50
60089;BME280;45961;53.574;55.878;2023-11-19T00:07:47;100889.47;;;-6.19;74.69
60089;BME280;45961;53.574;55.878;2023-11-19T00:09:07;100890.41;;;-6.27;74.74
60089;BME280;45961;53.574;55.878;2023-11-19T00:10:26;100883.00;;;-6.26;74.96
60089;BME280;45961;53.574;55.878;2023-11-19T00:11:46;100889.69;;;-6.26;74.85
60089;BME280;45961;53.574;55.878;2023-11-19T00:13:06;100888.66;;;-6.28;74.88
60089;BME280;45961;53.574;55.878;2023-11-19T00:14:26;100886.41;;;-6.25;75.07
60089;BME280;45961;53.574;55.878;2023-11-19T00:15:45;100892.06;;;-6.28;74.90
60089;BME280;45961;53.574;55.878;2023-11-19T00:17:06;100888.72;;;-6.18;74.89
60089;BME280;45961;53.574;55.878;2023-11-19T00:18:26;100889.69;;;-6.16;75.07
60089;BME280;45961;53.574;55.878;2023-11-19T00:19:45;100898.25;;;-6.24;74.93
60089;BME280;45961;53.574;55.878;2023-11-19T00:21:05;100891.97;;;-6.19;74.94
60089;BME280;45961;53.574;55.878;2023-11-19T00:22:27;100894.50;;;-6.19;74.94
60089;BME280;45961;53.574;55.878;2023-11-19T00:23:46;100889.69;;;-6.26;74.90
60089;BME280;45961;53.574;55.878;2023-11-19T00:25:06;100896.69;;;-6.32;75.09
60089;BME280;45961;53.574;55.878;2023-11-19T00:26:25;100889.03;;;-6.24;75.21
60089;BME280;45961;53.574;55.878;2023-11-19T00:27:45;100895.59;;;-6.26;75.15
60089;BME280;45961;53.574;55.878;2023-11-19T00:29:05;100885.13;;;-6.30;75.19
60089;BME280;45961;53.574;55.878;2023-11-19T00:30:26;100890.78;;;-6.33;75.30
60089;BME280;45961;53.574;55.878;2023-11-19T00:31:46;100897.81;;;-6.39;75.45
60089;BME280;45961;53.574;55.878;2023-11-19T00:33:05;100890.28;;;-6.29;75.67
60089;BME280;45961;53.574;55.878;2023-11-19T00:34:25;100896.75;;;-6.22;75.41
60089;BME280;45961;53.574;55.878;2023-11-19T00:35:45;100903.38;;;-6.33;75.44
60089;BME280;45961;53.574;55.878;2023-11-19T00:37:05;100902.44;;;-6.43;75.44
60089;BME280;45961;53.574;55.878;2023-11-19T00:38:26;100896.22;;;-6.28;75.26
60089;BME280;45961;53.574;55.878;2023-11-19T00:39:45;100904.78;;;-6.26;75.01
60089;BME280;45961;53.574;55.878;2023-11-19T00:41:05;100906.56;;;-6.25;74.93
60089;BME280;45961;53.574;55.878;2023-11-19T00:42:24;100909.75;;;-6.47;74.88
60089;BME280;45961;53.574;55.878;2023-11-19T00:43:44;100908.66;;;-6.59;75.06
60089;BME280;45961;53.574;55.878;2023-11-19T00:45:04;100912.63;;;-6.71;75.30
60089;BME280;45961;53.574;55.878;2023-11-19T00:46:27;100910.34;;;-6.68;75.49
60089;BME280;45961;53.574;55.878;2023-11-19T00:47:46;100913.50;;;-6.71;75.95
60089;BME280;45961;53.574;55.878;2023-11-19T00:49:06;100913.09;;;-6.75;75.96
60089;BME280;45961;53.574;55.878;2023-11-19T00:50:25;100913.03;;;-6.85;76.15
60089;BME280;45961;53.574;55.878;2023-11-19T00:51:45;100908.00;;;-6.85;76.20
60089;BME280;45961;53.574;55.878;2023-11-19T00:53:04;100917.31;;;-6.84;76.23
60089;BME280;45961;53.574;55.878;2023-11-19T00:54:24;100913.16;;;-6.84;76.17
60089;BME280;45961;53.574;55.878;2023-11-19T00:55:45;100922.75;;;-6.80;76.27
60089;BME280;45961;53.574;55.878;2023-11-19T00:57:04;100918.63;;;-6.79;76.56
60089;BME280;45961;53.574;55.878;2023-11-19T00:58:24;100922.06;;;-6.68;76.57
60089;BME280;45961;53.574;55.878;2023-11-19T00:59:44;100922.94;;;-6.68;76.34
60089;BME280;45961;53.574;55.878;2023-11-19T01:01:04;100929.22;;;-6.73;76.51
60089;BME280;45961;53.574;55.878;2023-11-19T01:02:24;100926.56;;;-6.75;76.43
60089;BME280;45961;53.574;55.878;2023-11-19T01:03:44;100935.41;;;-6.69;76.58
60089;BME280;45961;53.574;55.878;2023-11-19T01:05:04;100938.06;;;-6.68;76.77
60089;BME280;45961;53.574;55.878;2023-11-19T01:06:27;100940.97;;;-6.63;76.62
60089;BME280;45961;53.574;55.878;2023-11-19T01:07:46;100936.00;;;-6.72;76.62
60089;BME280;45961;53.574;55.878;2023-11-19T01:09:06;100938.34;;;-6.65;76.64
60089;BME280;45961;53.574;55.878;2023-11-19T01:10:26;100949.81;;;-6.77;76.30
60089;BME280;45961;53.574;55.878;2023-11-19T01:11:46;100943.97;;;-6.67;76.03
60089;BME280;45961;53.574;55.878;2023-11-19T01:13:05;100940.16;;;-6.73;75.85
60089;BME280;45961;53.574;55.878;2023-11-19T01:14:25;100945.41;;;-6.80;75.87
60089;BME280;45961;53.574;55.878;2023-11-19T01:15:44;100943.72;;;-6.71;75.68
60089;BME280;45961;53.574;55.878;2023-11-19T01:17:03;100943.09;;;-6.68;75.66
60089;BME280;45961;53.574;55.878;2023-11-19T01:18:23;100945.56;;;-6.78;75.38
60089;BME280;45961;53.574;55.878;2023-11-19T01:19:42;100950.78;;;-6.85;75.30
60089;BME280;45961;53.574;55.878;2023-11-19T01:21:02;100949.91;;;-6.86;75.36
60089;BME280;45961;53.574;55.878;2023-11-19T01:22:21;100945.88;;;-6.84;75.69
60089;BME280;45961;53.574;55.878;2023-11-19T01:23:41;100944.25;;;-6.83;75.35
60089;BME280;45961;53.574;55.878;2023-11-19T01:25:04;100941.78;;;-6.92;75.33
60089;BME280;45961;53.574;55.878;2023-11-19T01:26:24;100944.47;;;-6.90;75.44
60089;BME280;45961;53.574;55.878;2023-11-19T01:27:44;100947.97;;;-6.88;75.07
60089;BME280;45961;53.574;55.878;2023-11-19T01:29:03;100952.06;;;-6.99;75.20
60089;BME280;45961;53.574;55.878;2023-11-19T01:30:24;100952.53;;;-7.03;75.05
60089;BME280;45961;53.574;55.878;2023-11-19T01:31:45;100957.88;;;-7.09;74.97
60089;BME280;45961;53.574;55.878;2023-11-19T01:33:05;100957.56;;;-7.03;74.95
60089;BME280;45961;53.574;55.878;2023-11-19T01:34:26;100961.69;;;-7.04;74.89
60089;BME280;45961;53.574;55.878;2023-11-19T01:35:45;100952.84;;;-7.09;74.95
60089;BME280;45961;53.574;55.878;2023-11-19T01:37:05;100958.88;;;-7.26;74.85
60089;BME280;45961;53.574;55.878;2023-11-19T01:38:24;100964.78;;;-7.25;75.21
60089;BME280;45961;53.574;55.878;2023-11-19T01:39:44;100966.56;;;-7.24;75.21
60089;BME280;45961;53.574;55.878;2023-11-19T01:41:04;100969.81;;;-7.25;75.08
60089;BME280;45961;53.574;55.878;2023-11-19T01:42:23;100964.59;;;-7.46;75.01
60089;BME280;45961;53.574;55.878;2023-11-19T01:43:46;100966.38;;;-7.45;75.45
60089;BME280;45961;53.574;55.878;2023-11-19T01:45:06;100958.09;;;-7.43;75.53
60089;BME280;45961;53.574;55.878;2023-11-19T01:46:27;100959.56;;;-7.46;75.45
60089;BME280;45961;53.574;55.878;2023-11-19T01:47:48;100964.03;;;-7.52;75.27
60089;BME280;45961;53.574;55.878;2023-11-19T01:49:07;100963.22;;;-7.70;75.49
60089;BME280;45961;53.574;55.878;2023-11-19T01:50:28;100963.81;;;-7.63;75.63
60089;BME280;45961;53.574;55.878;2023-11-19T01:51:47;100965.41;;;-7.64;75.71
60089;BME280;45961;53.574;55.878;2023-11-19T01:53:07;100962.44;;;-7.60;75.56
60089;BME280;45961;53.574;55.878;2023-11-19T01:54:27;100968.97;;;-7.62;75.63
60089;BME280;45961;53.574;55.878;2023-11-19T01:55:47;100968.25;;;-7.70;75.69
60089;BME280;45961;53.574;55.878;2023-11-19T01:57:06;100965.28;;;-7.65;75.77
60089;BME280;45961;53.574;55.878;2023-11-19T01:58:26;100972.84;;;-7.74;75.75
60089;BME280;45961;53.574;55.878;2023-11-19T01:59:46;100975.41;;;-7.83;75.89
60089;BME280;45961;53.574;55.878;2023-11-19T02:01:06;100981.00;;;-7.85;75.93
60089;BME280;45961;53.574;55.878;2023-11-19T02:02:26;100980.72;;;-7.88;76.08
60089;BME280;45961;53.574;55.878;2023-11-19T02:03:46;100982.94;;;-8.00;76.18
60089;BME280;45961;53.574;55.878;2023-11-19T02:05:06;100983.56;;;-8.03;76.19
60089;BME280;45961;53.574;55.878;2023-11-19T02:06:26;100980.91;;;-8.13;76.28
60089;BME280;45961;53.574;55.878;2023-11-19T02:07:46;100976.63;;;-8.14;76.49
60089;BME280;45961;53.574;55.878;2023-11-19T02:09:06;100977.81;;;-8.10;76.51
60089;BME280;45961;53.574;55.878;2023-11-19T02:10:27;100978.84;;;-8.17;76.50
60089;BME280;45961;53.574;55.878;2023-11-19T02:11:47;100979.75;;;-8.25;76.81
60089;BME280;45961;53.574;55.878;2023-11-19T02:13:11;100981.06;;;-8.29;76.85
60089;BME280;45961;53.574;55.878;2023-11-19T02:14:32;100975.63;;;-8.33;77.00
60089;BME280;45961;53.574;55.878;2023-11-19T02:15:52;100974.16;;;-8.31;77.20
60089;BME280;45961;53.574;55.878;2023-11-19T02:17:27;100977.84;;;-8.28;77.22
60089;BME280;45961;53.574;55.878;2023-11-19T02:18:47;100979.91;;;-8.32;77.26
60089;BME280;45961;53.574;55.878;2023-11-19T02:20:08;100973.41;;;-8.30;77.35
60089;BME280;45961;53.574;55.878;2023-11-19T02:21:39;100972.53;;;-8.31;77.24
60089;BME280;45961;53.574;55.878;2023-11-19T02:22:58;100974.22;;;-8.40;77.45
60089;BME280;45961;53.574;55.878;2023-11-19T02:24:18;100976.25;;;-8.36;77.49
60089;BME280;45961;53.574;55.878;2023-11-19T02:25:40;100981.06;;;-8.29;77.43
60089;BME280;45961;53.574;55.878;2023-11-19T02:27:18;100984.84;;;-8.42;77.38
60089;BME280;45961;53.574;55.878;2023-11-19T02:28:40;100993.53;;;-8.65;77.45
60089;BME280;45961;53.574;55.878;2023-11-19T02:30:01;100986.16;;;-8.55;77.71
60089;BME280;45961;53.574;55.878;2023-11-19T02:31:22;100991.63;;;-8.59;77.61
60089;BME280;45961;53.574;55.878;2023-11-19T02:32:42;100992.38;;;-8.60;77.69
60089;BME280;45961;53.574;55.878;2023-11-19T02:34:01;100997.09;;;-8.63;77.92
60089;BME280;45961;53.574;55.878;2023-11-19T02:35:21;100991.31;;;-8.62;78.14
60089;BME280;45961;53.574;55.878;2023-11-19T02:36:42;100992.06;;;-8.54;78.22
60089;BME280;45961;53.574;55.878;2023-11-19T02:38:01;100980.09;;;-8.57;78.18
60089;BME280;45961;53.574;55.878;2023-11-19T02:39:22;100979.06;;;-8.59;78.11
60089;BME280;45961;53.574;55.878;2023-11-19T02:40:42;100977.31;;;-8.60;78.25
60089;BME280;45961;53.574;55.878;2023-11-19T02:42:01;100975.69;;;-8.59;78.33
60089;BME280;45961;53.574;55.878;2023-11-19T02:43:21;100969.59;;;-8.53;78.06
60089;BME280;45961;53.574;55.878;2023-11-19T02:44:43;100977.16;;;-8.70;78.20
60089;BME280;45961;53.574;55.878;2023-11-19T02:46:03;100977.00;;;-8.63;78.10
60089;BME280;45961;53.574;55.878;2023-11-19T02:47:27;100982.47;;;-8.67;78.18
60089;BME280;45961;53.574;55.878;2023-11-19T02:48:49;100980.97;;;-8.65;78.25
60089;BME280;45961;53.574;55.878;2023-11-19T02:50:11;100978.78;;;-8.62;77.95
60089;BME280;45961;53.574;55.878;2023-11-19T02:51:34;100983.47;;;-8.65;77.97
60089;BME280;45961;53.574;55.878;2023-11-19T02:52:54;100979.78;;;-8.68;78.11
60089;BME280;45961;53.574;55.878;2023-11-19T02:54:15;100989.56;;;-8.63;77.95
60089;BME280;45961;53.574;55.878;2023-11-19T02:55:34;100983.47;;;-8.65;77.75
60089;BME280;45961;53.574;55.878;2023-11-19T02:57:00;100984.53;;;-8.63;77.55
60089;BME280;45961;53.574;55.878;2023-11-19T02:58:21;100986.00;;;-8.65;77.69
60089;BME280;45961;53.574;55.878;2023-11-19T02:59:42;100978.47;;;-8.82;77.50
60089;BME280;45961;53.574;55.878;2023-11-19T03:01:02;100993.94;;;-8.86;77.61
60089;BME280;45961;53.574;55.878;2023-11-19T03:02:31;100989.69;;;-8.79;77.68
60089;BME280;45961;53.574;55.878;2023-11-19T03:04:03;100991.59;;;-8.85;77.79
60089;BME280;45961;53.574;55.878;2023-11-19T03:05:23;100999.72;;;-8.87;77.73
60089;BME280;45961;53.574;55.878;2023-11-19T03:06:42;100997.66;;;-8.91;77.61
60089;BME280;45961;53.574;55.878;2023-11-19T03:08:01;100994.94;;;-9.02;77.91
60089;BME280;45961;53.574;55.878;2023-11-19T03:09:22;100995.56;;;-9.04;78.13
60089;BME280;45961;53.574;55.878;2023-11-19T03:10:43;100987.28;;;-9.03;78.22
60089;BME280;45961;53.574;55.878;2023-11-19T03:12:02;100997.25;;;-9.21;78.14
60089;BME280;45961;53.574;55.878;2023-11-19T03:13:23;100994.91;;;-9.19;78.41
60089;BME280;45961;53.574;55.878;2023-11-19T03:14:42;101005.09;;;-9.17;78.59
60089;BME280;45961;53.574;55.878;2023-11-19T03:16:03;101000.63;;;-9.29;78.71
60089;BME280;45961;53.574;55.878;2023-11-19T03:17:23;100995.75;;;-9.36;78.83
60089;BME280;45961;53.574;55.878;2023-11-19T03:18:43;101012.34;;;-9.45;78.94
60089;BME280;45961;53.574;55.878;2023-11-19T03:20:04;101003.53;;;-9.41;79.11
60089;BME280;45961;53.574;55.878;2023-11-19T03:21:29;101009.16;;;-9.44;79.18
60089;BME280;45961;53.574;55.878;2023-11-19T03:22:50;101007.09;;;-9.39;79.20
60089;BME280;45961;53.574;55.878;2023-11-19T03:24:14;101017.34;;;-9.54;79.16
60089;BME280;45961;53.574;55.878;2023-11-19T03:25:34;101015.78;;;-9.45;79.21
60089;BME280;45961;53.574;55.878;2023-11-19T03:26:55;101016.59;;;-9.53;79.01
60089;BME280;45961;53.574;55.878;2023-11-19T03:28:14;101014.94;;;-9.61;79.01
60089;BME280;45961;53.574;55.878;2023-11-19T03:29:33;101009.25;;;-9.51;79.16
60089;BME280;45961;53.574;55.878;2023-11-19T03:30:53;101010.78;;;-9.45;79.07
60089;BME280;45961;53.574;55.878;2023-11-19T03:32:12;101006.91;;;-9.41;79.11
60089;BME280;45961;53.574;55.878;2023-11-19T03:33:32;101015.94;;;-9.34;79.12
60089;BME280;45961;53.574;55.878;2023-11-19T03:34:52;101021.06;;;-9.41;78.95
60089;BME280;45961;53.574;55.878;2023-11-19T03:36:14;101021.31;;;-9.56;79.00
60089;BME280;45961;53.574;55.878;2023-11-19T03:37:33;101023.09;;;-9.55;79.04
60089;BME280;45961;53.574;55.878;2023-11-19T03:38:53;101024.13;;;-9.53;79.16
60089;BME280;45961;53.574;55.878;2023-11-19T03:40:12;101018.28;;;-9.45;79.11
60089;BME280;45961;53.574;55.878;2023-11-19T03:41:31;101012.53;;;-9.43;79.25
60089;BME280;45961;53.574;55.878;2023-11-19T03:42:51;101017.78;;;-9.49;79.25
60089;BME280;45961;53.574;55.878;2023-11-19T03:44:10;101018.81;;;-9.56;79.19
60089;BME280;45961;53.574;55.878;2023-11-19T03:45:29;101018.06;;;-9.55;79.25
60089;BME280;45961;53.574;55.878;2023-11-19T03:46:49;101026.03;;;-9.59;79.30
60089;BME280;45961;53.574;55.878;2023-11-19T03:48:08;101014.28;;;-9.51;79.42
60089;BME280;45961;53.574;55.878;2023-11-19T03:49:27;101028.22;;;-9.62;79.30
60089;BME280;45961;53.574;55.878;2023-11-19T03:50:47;101021.47;;;-9.54;79.59
60089;BME280;45961;53.574;55.878;2023-11-19T03:52:06;101016.34;;;-9.47;79.48
60089;BME280;45961;53.574;55.878;2023-11-19T03:53:26;101017.22;;;-9.47;79.35
60089;BME280;45961;53.574;55.878;2023-11-19T03:54:45;101012.66;;;-9.51;79.21
60089;BME280;45961;53.574;55.878;2023-11-19T03:56:05;101017.94;;;-9.56;79.38
60089;BME280;45961;53.574;55.878;2023-11-19T03:57:24;101019.84;;;-9.54;79.36
60089;BME280;45961;53.574;55.878;2023-11-19T03:58:44;101023.44;;;-9.43;79.37
60089;BME280;45961;53.574;55.878;2023-11-19T04:00:03;101029.63;;;-9.48;79.33
60089;BME280;45961;53.574;55.878;2023-11-19T04:01:33;101029.13;;;-9.53;79.35
60089;BME280;45961;53.574;55.878;2023-11-19T04:02:52;101038.13;;;-9.55;79.13
60089;BME280;45961;53.574;55.878;2023-11-19T04:04:12;101030.75;;;-9.53;79.34
60089;BME280;45961;53.574;55.878;2023-11-19T04:05:32;101034.63;;;-9.48;79.27
60089;BME280;45961;53.574;55.878;2023-11-19T04:06:52;101030.19;;;-9.51;79.11
60089;BME280;45961;53.574;55.878;2023-11-19T04:08:11;101031.06;;;-9.50;79.28
60089;BME280;45961;53.574;55.878;2023-11-19T04:09:30;101039.28;;;-9.60;79.11
60089;BME280;45961;53.574;55.878;2023-11-19T04:10:51;101026.03;;;-9.59;79.25
60089;BME280;45961;53.574;55.878;2023-11-19T04:12:11;101026.63;;;-9.53;79.17
60089;BME280;45961;53.574;55.878;2023-11-19T04:13:30;101036.94;;;-9.58;79.11
60089;BME280;45961;53.574;55.878;2023-11-19T04:14:52;101036.88;;;-9.67;78.99
60089;BME280;45961;53.574;55.878;2023-11-19T04:16:12;101036.00;;;-9.67;79.09
60089;BME280;45961;53.574;55.878;2023-11-19T04:17:31;101041.63;;;-9.61;79.27
60089;BME280;45961;53.574;55.878;2023-11-19T04:18:51;101044.75;;;-9.55;79.25
60089;BME280;45961;53.574;55.878;2023-11-19T04:20:10;101038.03;;;-9.48;79.34
60089;BME280;45961;53.574;55.878;2023-11-19T04:21:32;101041.97;;;-9.50;79.08
60089;BME280;45961;53.574;55.878;2023-11-19T04:22:51;101034.88;;;-9.54;79.13
60089;BME280;45961;53.574;55.878;2023-11-19T04:24:13;101043.47;;;-9.52;79.19
60089;BME280;45961;53.574;55.878;2023-11-19T04:25:34;101043.75;;;-9.49;79.39
60089;BME280;45961;53.574;55.878;2023-11-19T04:26:53;101047.44;;;-9.45;79.58
60089;BME280;45961;53.574;55.878;2023-11-19T04:28:13;101044.41;;;-9.34;79.57
60089;BME280;45961;53.574;55.878;2023-11-19T04:29:33;101042.66;;;-9.26;79.39
60089;BME280;45961;53.574;55.878;2023-11-19T04:30:53;101040.59;;;-9.30;79.40
60089;BME280;45961;53.574;55.878;2023-11-19T04:32:12;101045.75;;;-9.29;79.44
60089;BME280;45961;53.574;55.878;2023-11-19T04:33:32;101038.09;;;-9.30;79.33
60089;BME280;45961;53.574;55.878;2023-11-19T04:34:51;101041.78;;;-9.27;79.55
60089;BME280;45961;53.574;55.878;2023-11-19T04:36:11;101041.38;;;-9.14;79.54
60089;BME280;45961;53.574;55.878;2023-11-19T04:37:31;101040.66;;;-9.13;79.15
60089;BME280;45961;53.574;55.878;2023-11-19T04:38:50;101048.13;;;-9.22;79.25
60089;BME280;45961;53.574;55.878;2023-11-19T04:40:11;101041.38;;;-9.23;79.31
60089;BME280;45961;53.574;55.878;2023-11-19T04:41:33;101045.19;;;-9.26;79.26
60089;BME280;45961;53.574;55.878;2023-11-19T04:42:52;101039.16;;;-9.20;79.33
60089;BME280;45961;53.574;55.878;2023-11-19T04:44:11;101045.81;;;-9.20;79.22
60089;BME280;45961;53.574;55.878;2023-11-19T04:45:31;101036.25;;;-9.07;79.39
60089;BME280;45961;53.574;55.878;2023-11-19T04:46:51;101045.97;;;-9.10;79.28
60089;BME280;45961;53.574;55.878;2023-11-19T04:48:10;101048.91;;;-9.14;79.29
60089;BME280;45961;53.574;55.878;2023-11-19T04:49:31;101055.13;;;-9.10;79.46
60089;BME280;45961;53.574;55.878;2023-11-19T04:50:51;101045.97;;;-9.10;79.46
60089;BME280;45961;53.574;55.878;2023-11-19T04:52:11;101057.94;;;-9.07;79.57
60089;BME280;45961;53.574;55.878;2023-11-19T04:53:30;101059.84;;;-9.05;79.65
60089;BME280;45961;53.574;55.878;2023-11-19T04:54:50;101056.66;;;-8.95;79.53
60089;BME280;45961;53.574;55.878;2023-11-19T04:56:10;101052.81;;;-8.91;79.56
60089;BME280;45961;53.574;55.878;2023-11-19T04:57:30;101055.66;;;-8.80;79.58
60089;BME280;45961;53.574;55.878;2023-11-19T04:58:51;101062.56;;;-8.86;79.49
60089;BME280;45961;53.574;55.878;2023-11-19T05:00:11;101061.38;;;-8.81;79.40
60089;BME280;45961;53.574;55.878;2023-11-19T05:01:34;101053.16;;;-8.71;79.38
60089;BME280;45961;53.574;55.878;2023-11-19T05:02:54;101056.56;;;-8.62;79.38
60089;BME280;45961;53.574;55.878;2023-11-19T05:04:13;101057.91;;;-8.57;79.34
60089;BME280;45961;53.574;55.878;2023-11-19T05:05:32;101059.97;;;-8.53;79.22
60089;BME280;45961;53.574;55.878;2023-11-19T05:06:52;101057.94;;;-8.48;79.03
60089;BME280;45961;53.574;55.878;2023-11-19T05:08:12;101062.50;;;-8.44;79.05
60089;BME280;45961;53.574;55.878;2023-11-19T05:09:32;101068.56;;;-8.51;79.04
60089;BME280;45961;53.574;55.878;2023-11-19T05:10:51;101068.09;;;-8.47;79.03
60089;BME280;45961;53.574;55.878;2023-11-19T05:12:10;101069.44;;;-8.41;78.87
60089;BME280;45961;53.574;55.878;2023-11-19T05:13:31;101066.31;;;-8.30;78.95
60089;BME280;45961;53.574;55.878;2023-11-19T05:14:51;101065.88;;;-8.35;78.93
60089;BME280;45961;53.574;55.878;2023-11-19T05:16:11;101065.56;;;-8.29;78.85
60089;BME280;45961;53.574;55.878;2023-11-19T05:17:33;101065.44;;;-8.31;79.00
60089;BME280;45961;53.574;55.878;2023-11-19T05:18:52;101067.94;;;-8.22;79.08
60089;BME280;45961;53.574;55.878;2023-11-19T05:20:11;101068.09;;;-8.12;79.00
60089;BME280;45961;53.574;55.878;2023-11-19T05:21:32;101066.47;;;-8.11;78.88
60089;BME280;45961;53.574;55.878;2023-11-19T05:22:53;101068.38;;;-8.09;78.98
60089;BME280;45961;53.574;55.878;2023-11-19T05:24:12;101068.53;;;-7.99;79.01
60089;BME280;45961;53.574;55.878;2023-11-19T05:25:32;101067.03;;;-7.97;78.88
60089;BME280;45961;53.574;55.878;2023-11-19T05:26:51;101071.34;;;-7.96;78.62
60089;BME280;45961;53.574;55.878;2023-11-19T05:28:11;101069.28;;;-7.91;78.47
60089;BME280;45961;53.574;55.878;2023-11-19T05:29:30;101084.78;;;-7.95;78.44
60089;BME280;45961;53.574;55.878;2023-11-19T05:30:49;101075.16;;;-7.90;78.39
60089;BME280;45961;53.574;55.878;2023-11-19T05:32:09;101073.84;;;-7.87;78.42
60089;BME280;45961;53.574;55.878;2023-11-19T05:33:29;101073.09;;;-7.86;78.34
60089;BME280;45961;53.574;55.878;2023-11-19T05:34:48;101076.66;;;-7.84;78.16
60089;BME280;45961;53.574;55.878;2023-11-19T05:36:08;101072.50;;;-7.83;78.23
60089;BME280;45961;53.574;55.878;2023-11-19T05:37:28;101075.03;;;-7.83;78.14
60089;BME280;45961;53.574;55.878;2023-11-19T05:38:47;101075.75;;;-7.84;78.18
60089;BME280;45961;53.574;55.878;2023-11-19T05:40:07;101074.13;;;-7.75;78.15
60089;BME280;45961;53.574;55.878;2023-11-19T05:41:33;101069.22;;;-7.74;78.05
60089;BME280;45961;53.574;55.878;2023-11-19T05:42:52;101070.53;;;-7.68;78.17
60089;BME280;45961;53.574;55.878;2023-11-19T05:44:11;101066.56;;;-7.66;78.02
60089;BME280;45961;53.574;55.878;2023-11-19T05:45:31;101075.53;;;-7.60;78.10
60089;BME280;45961;53.574;55.878;2023-11-19T05:46:51;101080.13;;;-7.56;78.09
60089;BME280;45961;53.574;55.878;2023-11-19T05:48:11;101082.19;;;-7.52;77.94
60089;BME280;45961;53.574;55.878;2023-11-19T05:49:31;101090.78;;;-7.50;77.92
60089;BME280;45961;53.574;55.878;2023-11-19T05:50:53;101090.63;;;-7.42;78.11
60089;BME280;45961;53.574;55.878;2023-11-19T05:52:13;101086.00;;;-7.38;77.89
60089;BME280;45961;53.574;55.878;2023-11-19T05:53:33;101096.19;;;-7.36;77.79
60089;BME280;45961;53.574;55.878;2023-11-19T05:54:53;101088.19;;;-7.32;77.90
60089;BME280;45961;53.574;55.878;2023-11-19T05:56:12;101085.53;;;-7.25;77.92
60089;BME280;45961;53.574;55.878;2023-11-19T05:57:32;101093.09;;;-7.34;77.79
60089;BME280;45961;53.574;55.878;2023-11-19T05:58:53;101081.53;;;-7.23;77.79
60089;BME280;45961;53.574;55.878;2023-11-19T06:00:13;101083.13;;;-7.15;77.80
60089;BME280;45961;53.574;55.878;2023-11-19T06:01:34;101078.22;;;-7.13;77.70
60089;BME280;45961;53.574;55.878;2023-11-19T06:02:53;101074.38;;;-7.10;77.72
60089;BME280;45961;53.574;55.878;2023-11-19T06:04:13;101086.78;;;-7.03;77.68
60089;BME280;45961;53.574;55.878;2023-11-19T06:05:33;101086.03;;;-7.02;77.66
60089;BME280;45961;53.574;55.878;2023-11-19T06:06:52;101073.78;;;-7.07;77.84
60089;BME280;45961;53.574;55.878;2023-11-19T06:08:13;101081.00;;;-7.02;77.72
60089;BME280;45961;53.574;55.878;2023-11-19T06:09:33;101084.63;;;-6.89;77.86
60089;BME280;45961;53.574;55.878;2023-11-19T06:10:53;101086.22;;;-6.81;77.85
60089;BME280;45961;53.574;55.878;2023-11-19T06:12:12;101082.66;;;-6.75;77.68
60089;BME280;45961;53.574;55.878;2023-11-19T06:13:33;101087.72;;;-6.83;77.74
60089;BME280;45961;53.574;55.878;2023-11-19T06:14:52;101088.16;;;-6.79;77.70
60089;BME280;45961;53.574;55.878;2023-11-19T06:16:11;101087.97;;;-6.80;77.50
60089;BME280;45961;53.574;55.878;2023-11-19T06:17:31;101085.28;;;-6.73;77.51
60089;BME280;45961;53.574;55.878;2023-11-19T06:18:50;101083.00;;;-6.61;77.54
60089;BME280;45961;53.574;55.878;2023-11-19T06:20:10;101077.16;;;-6.52;77.56
60089;BME280;45961;53.574;55.878;2023-11-19T06:21:31;101083.88;;;-6.61;77.55
60089;BME280;45961;53.574;55.878;2023-11-19T06:22:50;101087.97;;;-6.53;77.31
60089;BME280;45961;53.574;55.878;2023-11-19T06:24:10;101086.75;;;-6.48;77.27
60089;BME280;45961;53.574;55.878;2023-11-19T06:25:29;101091.47;;;-6.42;77.01
60089;BME280;45961;53.574;55.878;2023-11-19T06:26:48;101098.00;;;-6.44;77.00
60089;BME280;45961;53.574;55.878;2023-11-19T06:28:08;101101.84;;;-6.39;76.84
60089;BME280;45961;53.574;55.878;2023-11-19T06:29:27;101097.06;;;-6.36;76.77
60089;BME280;45961;53.574;55.878;2023-11-19T06:30:47;101092.09;;;-6.26;76.96
60089;BME280;45961;53.574;55.878;2023-11-19T06:32:06;101093.88;;;-6.25;76.74
60089;BME280;45961;53.574;55.878;2023-11-19T06:33:27;101101.84;;;-6.20;76.72
60089;BME280;45961;53.574;55.878;2023-11-19T06:34:46;101091.44;;;-6.14;76.68
60089;BME280;45961;53.574;55.878;2023-11-19T06:36:05;101089.91;;;-6.12;76.39
60089;BME280;45961;53.574;55.878;2023-11-19T06:37:25;101098.34;;;-6.12;76.15
60089;BME280;45961;53.574;55.878;2023-11-19T06:38:46;101095.38;;;-6.08;76.07
60089;BME280;45961;53.574;55.878;2023-11-19T06:40:05;101102.31;;;-6.05;76.10
60089;BME280;45961;53.574;55.878;2023-11-19T06:41:25;101104.50;;;-6.00;75.97
60089;BME280;45961;53.574;55.878;2023-11-19T06:42:45;101097.69;;;-6.01;75.81
60089;BME280;45961;53.574;55.878;2023-11-19T06:44:04;101103.97;;;-6.06;75.81
60089;BME280;45961;53.574;55.878;2023-11-19T06:45:24;101109.00;;;-6.06;75.78
60089;BME280;45961;53.574;55.878;2023-11-19T06:46:43;101112.31;;;-5.97;75.67
60089;BME280;45961;53.574;55.878;2023-11-19T06:48:03;101105.53;;;-5.87;75.60
60089;BME280;45961;53.574;55.878;2023-11-19T06:49:23;101110.72;;;-5.86;75.67
60089;BME280;45961;53.574;55.878;2023-11-19T06:50:43;101105.50;;;-5.79;75.48
60089;BME280;45961;53.574;55.878;2023-11-19T06:52:03;101114.19;;;-5.75;75.32
60089;BME280;45961;53.574;55.878;2023-11-19T06:53:23;101115.59;;;-5.68;75.28
60089;BME280;45961;53.574;55.878;2023-11-19T06:54:43;101115.59;;;-5.68;75.22